createdAt,value
2018-01-05T13:29:48.578Z,99563.41
2018-01-05T13:32:16.514Z,99563.53
2018-01-05T13:34:44.196Z,99570.89
2018-01-05T13:37:11.762Z,99562.88
2018-01-05T13:39:39.307Z,99562.53
2018-01-05T13:42:06.874Z,99561.55
2018-01-05T13:44:34.411Z,99568.67
2018-01-05T13:47:02.100Z,99570.22
2018-01-05T13:49:29.663Z,99572.31
2018-01-05T13:51:57.286Z,99585.58
2018-01-05T13:54:24.858Z,99591.05
2018-01-05T13:56:52.482Z,99589.64
2018-01-05T13:59:20.158Z,99604.77
2018-01-05T14:01:47.774Z,99605.31
2018-01-05T14:04:15.334Z,99617.09
2018-01-05T14:06:42.905Z,99612.69
2018-01-05T14:09:10.527Z,99617.05
2018-01-05T14:11:38.203Z,99609.53
2018-01-05T14:14:05.812Z,99614.66
2018-01-05T14:16:33.466Z,99617.31
2018-01-05T14:19:01.038Z,99625.74
2018-01-05T14:21:28.594Z,99627.74
2018-01-05T14:23:56.273Z,99632.63
2018-01-05T14:26:23.908Z,99643.11
2018-01-05T14:28:51.483Z,99637.67
2018-01-05T14:31:19.051Z,99645.69
2018-01-05T14:33:46.678Z,99643.29
2018-01-05T14:36:14.294Z,99640.58
2018-01-05T14:38:41.854Z,99644.77
2018-01-05T14:41:09.414Z,99645.44
2018-01-05T14:43:36.986Z,99656.77
2018-01-05T14:46:04.541Z,99661.80
2018-01-05T14:48:32.162Z,99665.25
2018-01-05T14:50:59.734Z,99665.78
2018-01-05T14:53:27.370Z,99666.54
2018-01-05T14:55:54.956Z,99670.85
2018-01-05T14:58:22.523Z,99677.38
2018-01-05T15:00:50.156Z,99682.91
2018-01-05T15:03:17.719Z,99688.20
2018-01-05T15:05:45.361Z,99679.33
2018-01-05T15:08:12.991Z,99684.36
2018-01-05T15:10:40.559Z,99695.56
2018-01-05T15:13:08.239Z,99683.22
2018-01-05T15:15:35.841Z,99684.36
2018-01-05T15:18:03.414Z,99679.10
2018-01-05T15:20:31.060Z,99677.81
2018-01-05T15:22:58.649Z,99683.83
2018-01-05T15:25:26.275Z,99687.62
2018-01-05T15:27:53.910Z,99686.96
2018-01-05T15:30:21.489Z,99694.58
2018-01-05T15:32:49.048Z,99686.87
2018-01-05T15:35:16.679Z,99685.20
2018-01-05T15:37:44.397Z,99698.61
2018-01-05T15:40:11.975Z,99703.33
2018-01-05T15:42:39.554Z,99702.93
2018-01-05T15:45:07.137Z,99707.62
2018-01-05T15:47:34.717Z,99711.48
2018-01-05T15:50:02.348Z,99716.67
2018-01-05T15:52:30.017Z,99727.95
2018-01-05T15:54:57.594Z,99724.25
2018-01-05T15:57:25.186Z,99717.80
2018-01-05T15:59:52.754Z,99716.78
2018-01-05T16:02:20.386Z,99710.63
2018-01-05T16:04:48.011Z,99716.66
2018-01-05T16:07:15.582Z,99718.69
2018-01-05T16:09:43.231Z,99724.24
2018-01-05T16:12:10.861Z,99732.83
2018-01-05T16:14:38.486Z,99722.50
2018-01-05T16:17:06.119Z,99730.30
2018-01-05T16:19:33.696Z,99739.02
2018-01-05T16:22:01.302Z,99750.03
2018-01-05T16:24:28.884Z,99756.50
2018-01-05T16:26:56.520Z,99758.14
2018-01-05T16:29:24.166Z,99757.48
2018-01-05T16:31:51.742Z,99763.11
